Time;durP1;ratioP1;P1;durP2;ratioP2;P2;SDS_P1;SDS_P2;PMS_P1;PMS_P2;Temp;Humidity;BMP_temperature;BMP_pressure;BME280_temperature;BME280_humidity;BME280_pressure;Samples;Min_cycle;Max_cycle;Signal;HPM_P1;HPM_P2
2024/01/18 00:00:51;;;;;;;7.77;3.53;;;-0.40;99.90;1.90;94457.00;;;;5012859;28;20463;-88
2024/01/18 00:03:41;;;;;;;8.77;4.80;;;-0.40;99.90;1.40;94459.00;;;;5018939;28;20782;-87
2024/01/18 00:06:32;;;;;;;24.03;12.83;;;-0.40;99.90;1.40;94447.00;;;;5001813;28;20493;-86
2024/01/18 00:09:22;;;;;;;26.50;15.63;;;-0.50;99.90;1.60;94436.00;;;;5011806;28;20433;-86
2024/01/18 00:12:12;;;;;;;10.50;7.87;;;-0.50;99.90;1.90;94446.00;;;;5009018;28;20460;-86
2024/01/18 00:15:03;;;;;;;19.20;13.93;;;-0.40;99.90;1.80;94441.00;;;;5002826;28;21025;-86
2024/01/18 00:17:52;;;;;;;11.33;5.67;;;-0.40;99.90;1.40;94439.00;;;;5012429;28;20443;-87
2024/01/18 00:20:41;;;;;;;13.50;12.20;;;-0.40;99.90;1.30;94450.00;;;;5021669;28;20492;-87
2024/01/18 00:23:30;;;;;;;33.23;29.57;;;-0.50;99.90;1.90;94448.00;;;;5006657;28;20993;-87
2024/01/18 00:26:20;;;;;;;20.37;10.80;;;-0.40;99.90;1.70;94458.00;;;;5004705;28;20939;-87
2024/01/18 00:29:09;;;;;;;5.73;2.60;;;-0.40;99.90;1.30;94458.00;;;;5009802;28;20429;-86
2024/01/18 00:32:00;;;;;;;13.50;5.27;;;-0.50;99.90;1.70;94440.00;;;;5007413;28;20640;-85
2024/01/18 00:34:49;;;;;;;15.07;5.87;;;-0.50;99.90;1.60;94444.00;;;;5005314;28;20449;-87
2024/01/18 00:37:38;;;;;;;6.47;3.60;;;-0.40;99.90;1.60;94445.00;;;;5008938;28;20424;-85
2024/01/18 00:40:27;;;;;;;12.23;6.33;;;-0.40;99.90;1.00;94451.00;;;;5009277;28;20533;-87
2024/01/18 00:43:16;;;;;;;6.73;2.90;;;-0.50;99.90;1.10;94415.00;;;;5010515;28;20599;-86
2024/01/18 00:46:06;;;;;;;6.53;2.93;;;-0.50;99.90;1.80;94432.00;;;;5002609;28;20429;-87
2024/01/18 00:48:56;;;;;;;6.60;2.87;;;-0.40;99.90;2.10;94436.00;;;;5014734;28;20417;-87
2024/01/18 00:51:45;;;;;;;6.83;2.90;;;-0.30;99.90;2.00;94435.00;;;;5016125;28;20503;-88
2024/01/18 00:54:34;;;;;;;6.00;2.73;;;-0.30;99.90;1.50;94427.00;;;;5014334;28;20428;-87
2024/01/18 00:57:23;;;;;;;6.93;3.23;;;-0.30;99.90;2.00;94438.00;;;;5011603;28;20479;-87
2024/01/18 01:00:14;;;;;;;20.60;18.17;;;-0.30;99.90;2.20;94428.00;;;;5010496;28;20468;-86
2024/01/18 01:03:04;;;;;;;13.07;9.40;;;-0.20;99.90;1.50;94417.00;;;;5009825;28;20430;-86
2024/01/18 01:05:54;;;;;;;12.07;8.93;;;-0.30;99.90;2.00;94420.00;;;;5011843;28;20422;-86
2024/01/18 01:08:43;;;;;;;41.03;35.83;;;-0.30;99.90;1.10;94425.00;;;;5007537;28;20436;-86
2024/01/18 01:11:32;;;;;;;123.47;59.07;;;-0.30;99.90;1.60;94432.00;;;;5013642;28;20465;-87
2024/01/18 01:14:21;;;;;;;241.70;80.93;;;-0.30;99.90;1.60;94435.00;;;;5008773;28;20433;-85
2024/01/18 01:17:10;;;;;;;191.17;65.83;;;-0.30;99.90;1.80;94412.00;;;;5007962;28;20456;-88
2024/01/18 01:19:58;;;;;;;279.80;80.70;;;-0.30;99.90;2.10;94414.00;;;;5018973;28;20459;-88
2024/01/18 01:22:50;;;;;;;247.47;69.00;;;-0.30;99.90;2.00;94413.00;;;;5011779;28;20436;-88
2024/01/18 01:25:39;;;;;;;169.60;50.53;;;-0.20;99.90;1.20;94415.00;;;;5011091;28;20456;-86
2024/01/18 01:28:28;;;;;;;197.27;58.40;;;-0.30;99.90;1.70;94383.00;;;;5010750;28;20425;-85
2024/01/18 01:31:17;;;;;;;219.97;69.53;;;-0.30;99.90;2.10;94405.00;;;;5002700;28;20950;-84
2024/01/18 01:34:06;;;;;;;241.80;72.53;;;-0.20;99.90;2.10;94400.00;;;;5015677;28;20436;-85
2024/01/18 01:36:55;;;;;;;237.33;69.47;;;-0.20;99.90;1.00;94408.00;;;;5009750;28;20475;-87
2024/01/18 01:39:46;;;;;;;254.50;72.20;;;-0.30;99.90;1.90;94400.00;;;;5003397;28;20438;-84
2024/01/18 01:42:34;;;;;;;260.20;74.00;;;-0.30;99.90;2.10;94428.00;;;;5022161;28;20432;-85
2024/01/18 01:45:23;;;;;;;273.97;70.20;;;-0.20;99.90;1.90;94422.00;;;;5034698;28;20458;-86
2024/01/18 01:48:14;;;;;;;264.07;77.27;;;-0.20;99.90;1.90;94413.00;;;;5012373;28;20444;-87
2024/01/18 01:51:02;;;;;;;238.93;80.57;;;-0.20;99.90;1.80;94413.00;;;;5018992;28;20484;-86
2024/01/18 01:53:52;;;;;;;13.47;10.63;;;-0.20;99.90;1.20;94411.00;;;;5014002;28;20433;-86
2024/01/18 01:56:45;;;;;;;11.10;8.67;;;-0.30;99.90;1.40;94398.00;;;;5012169;28;20846;-85
2024/01/18 01:59:35;;;;;;;7.07;4.27;;;-0.30;99.90;1.00;94392.00;;;;5008255;28;20449;-85
2024/01/18 02:02:24;;;;;;;15.53;7.07;;;-0.40;99.90;1.70;94398.00;;;;5003756;28;20425;-87
2024/01/18 02:05:13;;;;;;;9.33;4.93;;;-0.40;99.90;1.90;94405.00;;;;5007894;28;20433;-87
2024/01/18 02:08:02;;;;;;;5.70;3.63;;;-0.30;99.90;2.00;94394.00;;;;5019468;28;20425;-87
2024/01/18 02:10:52;;;;;;;8.93;4.63;;;-0.30;99.90;1.70;94398.00;;;;5010889;28;20475;-87
2024/01/18 02:13:43;;;;;;;7.93;4.23;;;-0.30;99.90;1.70;94386.00;;;;5016335;28;20426;-88
2024/01/18 02:16:32;;;;;;;13.47;6.40;;;-0.30;99.90;1.90;94395.00;;;;5037225;28;20476;-88
2024/01/18 02:19:21;;;;;;;21.37;9.47;;;-0.20;99.90;1.80;94398.00;;;;5013526;28;20909;-86
2024/01/18 02:22:13;;;;;;;10.20;5.13;;;-0.30;99.90;1.80;94388.00;;;;5011470;28;20429;-87
2024/01/18 02:25:16;;;;;;;9.50;4.73;;;-0.20;99.90;1.90;94392.00;;;;5008907;28;21249;-86
2024/01/18 02:28:05;;;;;;;8.97;4.93;;;-0.20;99.90;2.30;94378.00;;;;5012927;28;20923;-87
2024/01/18 02:30:54;;;;;;;10.97;6.20;;;-0.10;99.90;1.80;94385.00;;;;5010217;28;20457;-87
2024/01/18 02:33:43;;;;;;;9.37;5.53;;;-0.10;99.90;2.30;94385.00;;;;5011259;28;20531;-87
2024/01/18 02:36:34;;;;;;;13.87;7.07;;;-0.10;99.90;1.90;94372.00;;;;5008726;28;21012;-87
2024/01/18 02:39:23;;;;;;;11.90;6.83;;;-0.10;99.90;2.40;94363.00;;;;5011553;28;20763;-86
2024/01/18 02:42:14;;;;;;;9.13;5.67;;;0.00;99.90;2.10;94375.00;;;;5010826;28;20930;-86
2024/01/18 02:45:03;;;;;;;5.67;3.53;;;0.00;99.90;2.00;94370.00;;;;5014477;28;20452;-87
2024/01/18 02:47:52;;;;;;;12.30;6.27;;;0.00;99.90;2.40;94382.00;;;;5014192;28;20436;-87
2024/01/18 02:50:42;;;;;;;6.33;5.13;;;0.00;99.90;2.50;94383.00;;;;5009209;28;20449;-87
2024/01/18 02:53:31;;;;;;;12.40;8.10;;;0.10;99.90;1.90;94371.00;;;;5010666;28;20741;-86
2024/01/18 02:56:21;;;;;;;17.60;9.70;;;0.00;99.90;1.50;94372.00;;;;5013530;28;20432;-86
2024/01/18 02:59:11;;;;;;;17.47;9.43;;;0.00;99.90;1.10;94376.00;;;;5008110;28;20421;-85
2024/01/18 03:02:00;;;;;;;14.23;7.67;;;-0.10;99.90;2.00;94378.00;;;;5009666;28;20440;-86
2024/01/18 03:04:49;;;;;;;15.30;8.10;;;-0.10;99.90;2.40;94371.00;;;;5010538;28;21028;-87
2024/01/18 03:07:38;;;;;;;10.37;7.00;;;0.00;99.90;2.10;94372.00;;;;5009039;28;20431;-86
2024/01/18 03:10:27;;;;;;;15.57;8.03;;;0.00;99.90;2.30;94370.00;;;;5005797;28;20448;-85
2024/01/18 03:13:16;;;;;;;8.57;4.40;;;0.00;99.90;2.60;94372.00;;;;5012681;28;20423;-86
2024/01/18 03:16:06;;;;;;;9.63;5.37;;;0.10;99.90;2.60;94374.00;;;;5003068;28;20434;-86
2024/01/18 03:18:55;;;;;;;9.93;5.57;;;0.10;99.90;2.30;94367.00;;;;5003040;28;20428;-85
2024/01/18 03:21:44;;;;;;;10.30;5.77;;;0.20;99.90;2.30;94364.00;;;;5011224;28;20441;-85
2024/01/18 03:24:33;;;;;;;11.20;6.23;;;0.20;99.90;2.40;94362.00;;;;5006134;28;20437;-85
2024/01/18 03:27:22;;;;;;;13.63;6.33;;;0.20;99.90;2.30;94359.00;;;;5012180;28;20435;-86
2024/01/18 03:30:12;;;;;;;6.60;4.43;;;0.20;99.90;2.50;94360.00;;;;5009783;28;20974;-86
2024/01/18 03:33:02;;;;;;;12.07;6.00;;;0.20;99.90;2.30;94355.00;;;;5010773;28;20429;-85
2024/01/18 03:35:51;;;;;;;11.00;5.87;;;0.20;99.90;2.10;94371.00;;;;5008487;28;20440;-85
2024/01/18 03:38:40;;;;;;;8.67;5.37;;;0.20;99.90;2.00;94357.00;;;;5010294;28;20465;-86
2024/01/18 03:41:29;;;;;;;14.10;7.17;;;0.20;99.90;2.30;94367.00;;;;5010451;28;20831;-85
2024/01/18 03:44:19;;;;;;;19.73;8.93;;;0.20;99.90;2.30;94365.00;;;;5007815;28;20454;-85
2024/01/18 03:47:08;;;;;;;7.90;4.70;;;0.20;99.90;2.60;94374.00;;;;5011994;28;20464;-86
2024/01/18 03:49:58;;;;;;;12.33;6.00;;;0.20;99.90;2.80;94368.00;;;;5008763;28;20884;-86
2024/01/18 03:52:47;;;;;;;6.23;3.73;;;0.20;99.90;2.70;94358.00;;;;5007273;28;20430;-86
2024/01/18 03:55:36;;;;;;;8.67;4.77;;;0.30;99.90;2.60;94374.00;;;;5010766;28;20460;-86
2024/01/18 03:58:25;;;;;;;14.10;7.03;;;0.30;99.90;2.70;94379.00;;;;5013252;28;20480;-87
2024/01/18 04:01:14;;;;;;;8.43;5.33;;;0.40;99.90;2.90;94367.00;;;;5033420;28;20514;-87
2024/01/18 04:04:03;;;;;;;11.63;6.80;;;0.40;99.90;2.70;94366.00;;;;5014912;28;20452;-88
2024/01/18 04:06:53;;;;;;;11.17;7.17;;;0.50;99.90;2.70;94355.00;;;;5015707;28;20421;-87
2024/01/18 04:09:42;;;;;;;10.97;7.13;;;0.50;99.90;2.20;94360.00;;;;5016355;28;20887;-87
2024/01/18 04:12:31;;;;;;;17.83;8.73;;;0.40;99.90;2.30;94362.00;;;;5010997;28;20434;-87
2024/01/18 04:15:20;;;;;;;14.37;9.20;;;0.40;99.90;2.70;94370.00;;;;5019934;28;20465;-87
2024/01/18 04:18:09;;;;;;;9.33;6.53;;;0.40;99.90;2.60;94373.00;;;;5016627;28;21023;-86
2024/01/18 04:20:58;;;;;;;13.20;7.53;;;0.50;99.90;2.70;94373.00;;;;5017874;28;20460;-87
2024/01/18 04:23:48;;;;;;;11.93;7.90;;;0.50;99.90;2.60;94360.00;;;;5015778;28;20428;-87
2024/01/18 04:26:37;;;;;;;9.70;6.70;;;0.50;99.90;2.60;94356.00;;;;5013268;28;20809;-86
2024/01/18 04:29:27;;;;;;;13.83;8.37;;;0.50;99.90;2.80;94356.00;;;;5010637;28;20421;-86
2024/01/18 04:32:16;;;;;;;10.63;7.97;;;0.60;99.90;3.10;94357.00;;;;5011478;28;20436;-86
2024/01/18 04:35:06;;;;;;;19.13;10.90;;;0.50;99.90;3.10;94345.00;;;;5012467;28;20522;-87
2024/01/18 04:37:55;;;;;;;10.77;6.93;;;0.70;99.90;2.90;94356.00;;;;5011477;28;20457;-87
2024/01/18 04:40:45;;;;;;;10.47;7.07;;;0.70;99.90;2.70;94343.00;;;;5010042;28;21002;-87
2024/01/18 04:43:34;;;;;;;16.13;9.13;;;0.70;99.90;2.80;94347.00;;;;5021339;28;20432;-86
2024/01/18 04:46:23;;;;;;;13.27;9.13;;;0.70;99.90;2.70;94351.00;;;;5016857;28;20436;-87
2024/01/18 04:49:12;;;;;;;10.90;6.93;;;0.70;99.90;3.00;94351.00;;;;5020484;28;20441;-87
2024/01/18 04:52:01;;;;;;;17.23;10.80;;;0.80;99.90;3.20;94345.00;;;;5016292;28;20804;-87
2024/01/18 04:54:50;;;;;;;16.00;10.93;;;0.80;99.90;3.30;94355.00;;;;5013725;28;20436;-87
2024/01/18 04:57:40;;;;;;;9.03;6.90;;;0.80;99.90;3.10;94353.00;;;;5020080;28;20514;-88
2024/01/18 05:00:30;;;;;;;18.53;10.30;;;0.80;99.90;3.40;94359.00;;;;5021507;28;20457;-88
2024/01/18 05:03:19;;;;;;;9.20;7.30;;;0.90;99.90;3.30;94354.00;;;;5016861;28;20939;-87
2024/01/18 05:06:09;;;;;;;18.23;11.50;;;0.90;99.90;3.10;94347.00;;;;5016971;28;20452;-88
2024/01/18 05:08:59;;;;;;;14.73;10.47;;;0.90;99.90;3.20;94362.00;;;;5017020;28;20578;-87
2024/01/18 05:11:48;;;;;;;12.23;9.87;;;0.90;99.90;3.10;94355.00;;;;5010516;28;20499;-87
2024/01/18 05:14:38;;;;;;;9.47;8.70;;;1.00;99.90;2.70;94361.00;;;;5032293;28;20432;-84
2024/01/18 05:17:34;;;;;;;12.77;10.77;;;0.90;99.90;2.80;94366.00;;;;5021716;28;20437;-87
2024/01/18 05:20:23;;;;;;;17.27;12.30;;;0.90;99.90;3.10;94378.00;;;;5016533;28;20453;-86
2024/01/18 05:23:12;;;;;;;12.50;11.27;;;1.00;99.90;3.40;94374.00;;;;5060201;23;20490;-67
2024/01/18 05:26:01;;;;;;;14.13;9.90;;;1.00;99.90;3.10;94363.00;;;;5041119;28;20823;-67
2024/01/18 05:28:50;;;;;;;14.30;12.63;;;1.00;99.90;3.20;94376.00;;;;5028292;28;20432;-67
2024/01/18 05:31:40;;;;;;;11.60;10.53;;;1.00;99.90;3.60;94372.00;;;;5015150;28;20432;-67
2024/01/18 05:34:29;;;;;;;17.17;14.70;;;1.10;99.90;3.50;94375.00;;;;5025060;28;20448;-67
2024/01/18 05:37:22;;;;;;;13.37;12.27;;;1.10;99.90;3.40;94379.00;;;;5024667;28;20902;-67
2024/01/18 05:40:12;;;;;;;18.17;16.37;;;1.10;99.90;3.40;94387.00;;;;5021215;28;20937;-67
2024/01/18 05:43:00;;;;;;;16.43;15.00;;;1.20;99.90;3.60;94380.00;;;;5021553;28;20431;-67
2024/01/18 05:45:49;;;;;;;23.00;20.60;;;1.20;99.90;3.50;94391.00;;;;5024306;28;21226;-67
2024/01/18 05:48:40;;;;;;;17.37;15.83;;;1.20;99.90;3.50;94390.00;;;;5026421;28;20468;-67
2024/01/18 05:51:28;;;;;;;24.80;22.10;;;1.20;99.90;3.30;94396.00;;;;5020659;28;20942;-67
2024/01/18 05:54:17;;;;;;;23.57;21.30;;;1.20;99.90;3.10;94401.00;;;;5022144;28;20440;-67
2024/01/18 05:57:06;;;;;;;17.73;16.13;;;1.20;99.90;2.50;94396.00;;;;5027823;28;20454;-66
2024/01/18 05:59:55;;;;;;;21.93;19.90;;;1.00;99.90;2.60;94399.00;;;;5025984;28;20463;-67
2024/01/18 06:02:44;;;;;;;21.53;19.70;;;1.00;99.90;2.30;94404.00;;;;5023832;28;20433;-68
2024/01/18 06:05:34;;;;;;;22.90;20.77;;;0.90;99.90;2.50;94407.00;;;;5027396;28;20903;-66
2024/01/18 06:08:23;;;;;;;28.50;25.50;;;0.90;99.90;2.10;94399.00;;;;5025772;28;20464;-69
2024/01/18 06:11:14;;;;;;;26.13;23.87;;;0.90;99.90;2.70;94406.00;;;;5021793;28;20456;-68
2024/01/18 06:14:03;;;;;;;25.03;22.60;;;0.90;99.90;2.80;94426.00;;;;5026582;28;20452;-67
2024/01/18 06:16:52;;;;;;;28.40;25.60;;;0.90;99.90;2.60;94417.00;;;;5028251;28;20478;-68
2024/01/18 06:19:41;;;;;;;26.93;24.53;;;1.00;99.90;2.90;94425.00;;;;5028064;28;20802;-67
2024/01/18 06:22:31;;;;;;;35.63;31.87;;;1.00;99.90;3.00;94428.00;;;;5027819;28;20440;-67
2024/01/18 06:25:20;;;;;;;28.57;25.83;;;1.00;99.90;2.50;94427.00;;;;5024311;28;20456;-67
2024/01/18 06:28:10;;;;;;;32.53;29.27;;;1.00;99.90;3.00;94447.00;;;;5019622;28;20930;-67
2024/01/18 06:30:59;;;;;;;36.50;32.63;;;1.00;99.90;2.90;94442.00;;;;5026465;28;20432;-66
2024/01/18 06:33:48;;;;;;;35.93;32.57;;;1.00;99.90;2.50;94434.00;;;;5021502;28;20447;-66
2024/01/18 06:36:38;;;;;;;45.33;38.77;;;1.00;99.90;2.50;94444.00;;;;5023101;28;20440;-68
2024/01/18 06:39:28;;;;;;;48.77;39.83;;;1.00;99.90;2.60;94450.00;;;;5025455;28;20417;-66
2024/01/18 06:42:17;;;;;;;113.33;82.50;;;1.00;99.90;3.00;94460.00;;;;4990262;28;20505;-66
2024/01/18 06:45:08;;;;;;;134.73;98.20;;;1.00;99.90;2.90;94458.00;;;;5004057;28;20443;-67
2024/01/18 06:47:57;;;;;;;81.30;50.60;;;1.10;99.90;3.20;94468.00;;;;5023577;28;20452;-67
2024/01/18 06:50:46;;;;;;;301.17;79.87;;;1.10;99.90;3.50;94481.00;;;;5025264;28;20433;-67
2024/01/18 06:53:35;;;;;;;302.60;99.37;;;1.20;99.90;3.40;94464.00;;;;5024590;28;20456;-67
2024/01/18 06:56:25;;;;;;;154.73;83.33;;;1.30;99.90;3.40;94469.00;;;;4984699;28;21317;-66
2024/01/18 06:59:14;;;;;;;187.60;68.83;;;1.30;99.90;3.60;94481.00;;;;5019927;28;20432;-67
2024/01/18 07:02:04;;;;;;;245.70;127.23;;;1.40;99.90;3.80;94479.00;;;;5006449;28;20447;-66
2024/01/18 07:04:52;;;;;;;253.23;121.53;;;1.50;99.90;3.50;94482.00;;;;4979602;28;20449;-67
2024/01/18 07:07:42;;;;;;;235.70;111.70;;;1.40;99.90;3.60;94468.00;;;;4980150;28;20429;-66
2024/01/18 07:10:31;;;;;;;249.13;86.73;;;1.50;99.90;3.50;94472.00;;;;4978862;28;20484;-66
2024/01/18 07:13:21;;;;;;;251.17;122.50;;;1.50;99.90;3.20;94470.00;;;;4978752;28;20452;-66
2024/01/18 07:16:10;;;;;;;158.87;68.67;;;1.40;99.90;3.20;94464.00;;;;5018755;28;20472;-67
2024/01/18 07:18:58;;;;;;;166.70;66.87;;;1.40;99.90;3.30;94479.00;;;;5013846;28;20443;-66
2024/01/18 07:21:47;;;;;;;155.23;67.43;;;1.40;99.90;3.10;94476.00;;;;5021430;28;21016;-66
2024/01/18 07:24:36;;;;;;;170.90;78.93;;;1.30;99.90;3.10;94460.00;;;;5021889;28;20433;-67
2024/01/18 07:27:26;;;;;;;199.70;78.63;;;1.30;99.90;3.10;94469.00;;;;5016723;28;20816;-66
2024/01/18 07:30:16;;;;;;;193.87;76.43;;;1.30;99.90;3.60;94461.00;;;;5022155;28;20989;-66
2024/01/18 07:33:06;;;;;;;194.87;75.33;;;1.30;99.90;3.10;94460.00;;;;5018390;28;20482;-66
2024/01/18 07:35:55;;;;;;;122.70;60.40;;;1.30;99.90;3.30;94452.00;;;;5024950;28;20466;-66
2024/01/18 07:38:44;;;;;;;149.07;62.17;;;1.30;99.90;3.40;94450.00;;;;5018973;28;20433;-65
2024/01/18 07:41:33;;;;;;;153.90;70.80;;;1.40;99.90;3.50;94453.00;;;;5022115;28;20429;-66
2024/01/18 07:44:22;;;;;;;188.87;72.97;;;1.40;99.90;3.90;94453.00;;;;5015939;28;20841;-66
2024/01/18 07:47:13;;;;;;;141.00;52.53;;;1.40;99.90;3.70;94457.00;;;;5022899;28;20829;-66
2024/01/18 07:50:02;;;;;;;163.90;71.63;;;1.50;99.90;3.90;94453.00;;;;5025923;28;20467;-66
2024/01/18 07:52:54;;;;;;;104.07;56.13;;;1.60;99.90;3.80;94459.00;;;;5028990;28;20519;-66
2024/01/18 07:55:43;;;;;;;147.87;65.97;;;1.60;99.90;4.00;94469.00;;;;5026049;28;20838;-66
2024/01/18 07:58:31;;;;;;;213.43;80.30;;;1.70;99.90;4.00;94464.00;;;;5024126;28;20431;-66
2024/01/18 08:01:20;;;;;;;189.07;71.23;;;1.70;99.90;4.00;94468.00;;;;5027320;28;20424;-66
2024/01/18 08:04:10;;;;;;;195.43;75.20;;;1.70;99.90;4.10;94466.00;;;;5027888;28;20444;-66
2024/01/18 08:06:59;;;;;;;179.63;72.03;;;1.80;99.90;4.40;94477.00;;;;5024339;28;20452;-66
2024/01/18 08:09:48;;;;;;;103.33;50.87;;;1.90;99.90;4.30;94470.00;;;;5027204;28;20484;-66
2024/01/18 08:12:37;;;;;;;178.63;59.57;;;2.00;99.90;4.70;94477.00;;;;5023748;28;20447;-66
2024/01/18 08:15:26;;;;;;;265.70;91.63;;;2.10;99.90;4.60;94473.00;;;;5025935;28;20436;-66
2024/01/18 08:18:16;;;;;;;265.97;78.27;;;2.20;99.90;4.50;94476.00;;;;5026829;28;20420;-66
2024/01/18 08:21:06;;;;;;;260.37;88.57;;;2.30;99.90;4.40;94486.00;;;;5025715;28;20427;-66
2024/01/18 08:23:56;;;;;;;217.07;61.97;;;2.30;99.90;3.70;94481.00;;;;5027370;28;20523;-67
2024/01/18 08:26:44;;;;;;;302.57;76.63;;;2.30;99.90;3.70;94487.00;;;;5025740;28;20829;-65
2024/01/18 08:29:33;;;;;;;317.47;84.10;;;2.30;99.90;3.90;94485.00;;;;5021929;28;20467;-65
2024/01/18 08:32:22;;;;;;;293.23;82.27;;;2.20;99.90;4.40;94499.00;;;;5021298;28;20960;-67
2024/01/18 08:35:11;;;;;;;258.13;75.83;;;2.30;99.90;4.50;94506.00;;;;5029127;28;20502;-66
2024/01/18 08:38:02;;;;;;;266.30;88.67;;;2.30;99.90;4.20;94505.00;;;;5028178;28;20508;-67
2024/01/18 08:40:51;;;;;;;194.77;49.30;;;1.90;99.90;4.50;94500.00;;;;5027473;28;20455;-67
2024/01/18 08:43:40;;;;;;;314.47;78.10;;;2.40;99.90;5.00;94513.00;;;;5024252;28;20447;-66
2024/01/18 08:46:29;;;;;;;226.97;68.80;;;;;5.00;94514.00;;;;5017921;28;21003;-66
2024/01/18 08:49:18;;;;;;;291.30;81.97;;;2.60;99.90;5.40;94516.00;;;;5026087;28;20428;-66
2024/01/18 08:52:08;;;;;;;203.70;68.97;;;3.20;99.90;5.00;94513.00;;;;5028562;28;20559;-66
2024/01/18 08:54:58;;;;;;;243.30;74.73;;;2.80;99.90;5.10;94520.00;;;;5023503;28;20503;-66
2024/01/18 08:57:49;;;;;;;255.70;74.60;;;2.80;99.90;4.80;94514.00;;;;5026394;28;20806;-65
2024/01/18 09:00:39;;;;;;;307.70;75.47;;;2.80;99.90;5.40;94524.00;;;;5015836;28;20453;-66
2024/01/18 09:03:28;;;;;;;302.60;82.07;;;2.90;99.90;5.80;94530.00;;;;5028902;28;20490;-65
2024/01/18 09:06:18;;;;;;;11.13;7.83;;;3.00;99.90;5.30;94531.00;;;;5023376;28;20534;-66
2024/01/18 09:09:10;;;;;;;175.60;47.07;;;3.10;99.90;5.10;94532.00;;;;5027339;28;20213;-65
2024/01/18 09:12:00;;;;;;;330.90;85.07;;;3.10;99.90;4.70;94543.00;;;;5025813;28;20458;-66
2024/01/18 09:14:49;;;;;;;329.27;82.90;;;3.00;99.90;4.80;94560.00;;;;5025831;28;20440;-66
2024/01/18 09:17:38;;;;;;;21.10;15.60;;;2.90;99.90;5.00;94545.00;;;;5027583;28;20940;-66
2024/01/18 09:20:27;;;;;;;105.50;35.57;;;2.90;99.90;4.90;94543.00;;;;5014908;28;20202;-66
2024/01/18 09:23:16;;;;;;;237.53;68.20;;;2.90;99.90;5.30;94543.00;;;;5027694;28;20491;-66
2024/01/18 09:26:05;;;;;;;218.40;57.60;;;3.00;99.90;5.60;94546.00;;;;5024320;28;20486;-66
2024/01/18 09:28:55;;;;;;;213.57;62.00;;;3.00;99.90;5.80;94538.00;;;;5023383;28;20433;-66
2024/01/18 09:31:44;;;;;;;32.57;10.60;;;3.10;99.90;5.50;94532.00;;;;5027207;28;20471;-65
2024/01/18 09:34:33;;;;;;;10.93;4.93;;;3.20;99.90;5.70;94528.00;;;;5028779;28;20210;-65
2024/01/18 09:37:22;;;;;;;7.60;3.63;;;3.20;99.90;6.00;94545.00;;;;5026612;28;20229;-66
2024/01/18 09:40:12;;;;;;;8.07;3.77;;;3.30;99.90;5.80;94543.00;;;;5025297;28;20194;-66
2024/01/18 09:43:06;;;;;;;8.03;3.90;;;3.30;99.90;5.60;94541.00;;;;5025142;28;20205;-66
2024/01/18 09:45:58;;;;;;;6.73;3.20;;;3.30;99.90;5.00;94534.00;;;;5022662;28;20217;-67
2024/01/18 09:48:47;;;;;;;9.00;4.27;;;3.30;99.90;5.90;94535.00;;;;5026336;28;20675;-67
2024/01/18 09:51:36;;;;;;;9.23;4.37;;;3.40;99.90;6.00;94515.00;;;;5025810;28;20682;-67
2024/01/18 09:54:26;;;;;;;10.03;4.70;;;3.40;99.90;6.30;94523.00;;;;5020796;28;20588;-66
2024/01/18 09:57:26;;;;;;;12.70;7.20;;;3.60;99.90;6.00;94531.00;;;;5012244;28;20252;-66
2024/01/18 10:00:17;;;;;;;298.67;88.83;;;3.60;99.90;5.90;94530.00;;;;5020507;28;20613;-66
2024/01/18 10:03:07;;;;;;;262.03;88.93;;;3.60;99.90;5.90;94517.00;;;;5020583;28;20427;-66
2024/01/18 10:05:56;;;;;;;227.73;87.07;;;3.60;99.90;6.10;94526.00;;;;5023018;28;20465;-66
2024/01/18 10:08:45;;;;;;;195.27;76.63;;;3.70;99.90;6.40;94517.00;;;;5019529;28;20473;-67
2024/01/18 10:11:36;;;;;;;203.33;77.03;;;3.70;99.90;6.30;94517.00;;;;5026084;28;20544;-67
2024/01/18 10:14:42;;;;;;;169.60;80.60;;;3.80;99.90;6.40;94518.00;;;;5023803;28;20429;-66
2024/01/18 10:17:31;;;;;;;208.00;82.83;;;3.50;99.90;6.40;94517.00;;;;5017103;28;20428;-66
2024/01/18 10:20:23;;;;;;;234.63;79.70;;;3.90;99.90;6.30;94519.00;;;;5013450;28;20421;-66
2024/01/18 10:23:13;;;;;;;239.70;81.73;;;3.90;99.90;7.00;94517.00;;;;5020089;28;20447;-66
2024/01/18 10:26:02;;;;;;;189.33;77.13;;;;;6.60;94526.00;;;;5016788;28;20997;-67
2024/01/18 10:28:51;;;;;;;233.93;83.17;;;;;6.60;94528.00;;;;5026071;28;20206;-65
2024/01/18 10:31:42;;;;;;;275.23;87.10;;;;;7.00;94531.00;;;;5024667;28;20471;-66
2024/01/18 10:34:35;;;;;;;265.77;86.30;;;;;7.30;94536.00;;;;5017548;28;20429;-66
2024/01/18 10:37:26;;;;;;;201.43;82.63;;;;;7.40;94522.00;;;;5024160;28;20452;-66
2024/01/18 10:40:20;;;;;;;206.77;81.17;;;;;7.50;94520.00;;;;5025927;28;20214;-66
2024/01/18 10:43:09;;;;;;;239.13;86.90;;;;;7.90;94531.00;;;;5026710;28;20216;-66
2024/01/18 10:45:59;;;;;;;261.70;88.47;;;;;7.60;94527.00;;;;5027007;28;20221;-66
2024/01/18 10:48:49;;;;;;;134.40;67.63;;;;;7.60;94521.00;;;;5022506;28;20198;-66
2024/01/18 10:51:40;;;;;;;115.10;54.73;;;;;8.10;94529.00;;;;5026706;28;20221;-66
2024/01/18 10:54:32;;;;;;;31.63;28.57;;;;;7.80;94527.00;;;;5025381;28;20205;-66
2024/01/18 10:57:23;;;;;;;91.57;64.40;;;;;7.60;94521.00;;;;5020293;28;20459;-66
2024/01/18 11:00:15;;;;;;;111.07;70.97;;;;;8.30;94528.00;;;;5026553;28;20205;-66
2024/01/18 11:03:06;;;;;;;117.40;70.80;;;;;8.60;94539.00;;;;5024788;28;20201;-66
2024/01/18 11:05:55;;;;;;;147.20;78.23;;;;;8.90;94522.00;;;;5021414;28;20604;-66
2024/01/18 11:08:45;;;;;;;165.37;80.57;;;6.10;99.90;8.40;94523.00;;;;5024458;28;20213;-66
2024/01/18 11:11:36;;;;;;;188.67;88.93;;;6.10;99.90;8.50;94527.00;;;;5021990;28;20224;-66
2024/01/18 11:14:28;;;;;;;214.60;94.53;;;6.30;99.90;8.90;94515.00;;;;5020411;28;20212;-65
2024/01/18 11:17:19;;;;;;;226.40;91.93;;;6.70;99.90;9.60;94532.00;;;;5027965;28;20221;-66
2024/01/18 11:20:11;;;;;;;266.70;95.83;;;;;10.90;94545.00;;;;5022181;28;20671;-66
2024/01/18 11:23:01;;;;;;;312.53;106.60;;;;;12.00;94558.00;;;;5023683;28;20209;-66
2024/01/18 11:25:50;;;;;;;328.07;104.13;;;;;12.10;94548.00;;;;5022401;28;20680;-67
2024/01/18 11:28:41;;;;;;;353.17;110.63;;;;;12.80;94554.00;;;;5022507;28;20202;-67
2024/01/18 11:31:45;;;;;;;352.60;115.13;;;;;13.20;94553.00;;;;5022385;28;20781;-67
2024/01/18 11:34:36;;;;;;;301.37;142.23;;;;;13.20;94548.00;;;;5019860;28;20197;-67
2024/01/18 11:37:26;;;;;;;199.33;118.57;;;;;13.40;94546.00;;;;5017477;28;20288;-65
2024/01/18 11:40:16;;;;;;;156.57;114.77;;;;;13.00;94545.00;;;;5024267;28;20212;-66
2024/01/18 11:43:05;;;;;;;231.20;129.30;;;;;12.60;94552.00;;;;5024046;28;20205;-66
2024/01/18 11:45:56;;;;;;;135.30;111.73;;;;;12.60;94540.00;;;;5020824;28;20229;-67
2024/01/18 11:48:45;;;;;;;116.83;104.20;;;;;13.50;94543.00;;;;5022721;28;20205;-67
2024/01/18 11:51:35;;;;;;;141.20;118.87;;;;;13.50;94549.00;;;;5020294;28;20290;-66
2024/01/18 11:54:25;;;;;;;155.80;126.63;;;;;13.50;94546.00;;;;5019503;28;20213;-67
2024/01/18 11:57:14;;;;;;;161.70;129.00;;;;;13.70;94539.00;;;;5017163;28;20228;-65
2024/01/18 12:00:03;;;;;;;184.73;133.93;;;;;14.00;94534.00;;;;5017793;28;20197;-66
2024/01/18 12:02:54;;;;;;;212.60;138.83;;;;;14.40;94532.00;;;;5016765;28;20209;-66
2024/01/18 12:05:45;;;;;;;207.40;143.00;;;;;13.90;94545.00;;;;5016602;28;20225;-65
2024/01/18 12:08:35;;;;;;;227.73;152.63;;;;;14.70;94537.00;;;;5018836;28;20209;-64
2024/01/18 12:11:24;;;;;;;244.43;158.73;;;;;15.30;94536.00;;;;5021960;28;20225;-64
2024/01/18 12:14:13;;;;;;;242.10;167.50;;;;;15.50;94535.00;;;;5025163;28;20208;-65
2024/01/18 12:17:02;;;;;;;274.23;184.83;;;;;16.10;94533.00;;;;5024584;28;20228;-64
2024/01/18 12:19:53;;;;;;;339.27;186.43;;;;;16.50;94518.00;;;;5018481;28;20588;-65
2024/01/18 12:22:42;;;;;;;393.00;196.77;;;;;16.30;94516.00;;;;5022237;28;20734;-66
2024/01/18 12:25:33;;;;;;;390.00;200.50;;;;;16.80;94529.00;;;;5018671;28;20221;-66
2024/01/18 12:28:22;;;;;;;388.37;208.13;;;;;17.50;94509.00;;;;5020590;28;20209;-65
2024/01/18 12:31:11;;;;;;;390.40;220.13;;;;;17.80;94510.00;;;;5021571;28;20233;-66
2024/01/18 12:34:01;;;;;;;390.60;236.10;;;;;17.60;94495.00;;;;5018863;28;20208;-64
2024/01/18 12:36:51;;;;;;;392.87;244.40;;;;;18.50;94503.00;;;;5025193;28;20218;-66
2024/01/18 12:39:41;;;;;;;394.87;258.43;;;;;18.40;94503.00;;;;5020684;28;20209;-65
2024/01/18 12:42:31;;;;;;;398.33;261.57;;;;;15.10;94492.00;;;;5022592;28;20749;-67